sensor_id;sensor_type;location;lat;lon;timestamp;P1;durP1;ratioP1;P2;durP2;ratioP2
26191;SDS011;13935;55.672;37.764;2022-09-28T00:00:43;9.25;;;6.20;;
26191;SDS011;13935;55.672;37.764;2022-09-28T00:01:48;10.55;;;6.57;;
26191;SDS011;13935;55.672;37.764;2022-09-28T00:02:53;8.65;;;6.18;;
26191;SDS011;13935;55.672;37.764;2022-09-28T00:03:58;9.18;;;6.28;;
26191;SDS011;13935;55.672;37.764;2022-09-28T00:05:01;9.30;;;6.45;;
26191;SDS011;13935;55.672;37.764;2022-09-28T00:06:06;8.75;;;6.45;;
26191;SDS011;13935;55.672;37.764;2022-09-28T00:07:13;9.82;;;6.05;;
26191;SDS011;13935;55.672;37.764;2022-09-28T00:08:15;10.80;;;6.85;;
26191;SDS011;13935;55.672;37.764;2022-09-28T00:09:18;9.27;;;6.90;;
26191;SDS011;13935;55.672;37.764;2022-09-28T00:10:21;9.20;;;6.50;;
26191;SDS011;13935;55.672;37.764;2022-09-28T00:11:26;10.18;;;6.68;;
26191;SDS011;13935;55.672;37.764;2022-09-28T00:12:29;9.40;;;6.63;;
26191;SDS011;13935;55.672;37.764;2022-09-28T00:13:34;9.23;;;6.60;;
26191;SDS011;13935;55.672;37.764;2022-09-28T00:14:36;9.90;;;6.47;;
26191;SDS011;13935;55.672;37.764;2022-09-28T00:15:41;8.65;;;6.07;;
26191;SDS011;13935;55.672;37.764;2022-09-28T00:16:45;11.38;;;6.38;;
26191;SDS011;13935;55.672;37.764;2022-09-28T00:17:49;9.38;;;6.65;;
26191;SDS011;13935;55.672;37.764;2022-09-28T00:18:54;9.20;;;6.00;;
26191;SDS011;13935;55.672;37.764;2022-09-28T00:19:57;8.98;;;6.50;;
26191;SDS011;13935;55.672;37.764;2022-09-28T00:21:00;9.35;;;6.55;;
26191;SDS011;13935;55.672;37.764;2022-09-28T00:22:03;10.95;;;6.80;;
26191;SDS011;13935;55.672;37.764;2022-09-28T00:23:05;8.55;;;6.53;;
26191;SDS011;13935;55.672;37.764;2022-09-28T00:24:11;9.00;;;6.35;;
26191;SDS011;13935;55.672;37.764;2022-09-28T00:25:17;10.00;;;6.57;;
26191;SDS011;13935;55.672;37.764;2022-09-28T00:26:28;10.60;;;6.57;;
26191;SDS011;13935;55.672;37.764;2022-09-28T00:27:33;10.52;;;6.43;;
26191;SDS011;13935;55.672;37.764;2022-09-28T00:28:35;10.70;;;6.20;;
26191;SDS011;13935;55.672;37.764;2022-09-28T00:29:40;9.65;;;5.95;;
26191;SDS011;13935;55.672;37.764;2022-09-28T00:30:43;8.02;;;5.65;;
26191;SDS011;13935;55.672;37.764;2022-09-28T00:31:47;9.40;;;6.28;;
26191;SDS011;13935;55.672;37.764;2022-09-28T00:32:53;9.77;;;6.72;;
26191;SDS011;13935;55.672;37.764;2022-09-28T00:33:56;9.50;;;6.15;;
26191;SDS011;13935;55.672;37.764;2022-09-28T00:35:01;9.15;;;6.28;;
26191;SDS011;13935;55.672;37.764;2022-09-28T00:36:03;9.10;;;5.93;;
26191;SDS011;13935;55.672;37.764;2022-09-28T00:37:05;9.10;;;6.38;;
26191;SDS011;13935;55.672;37.764;2022-09-28T00:38:09;10.80;;;6.63;;
26191;SDS011;13935;55.672;37.764;2022-09-28T00:39:15;7.85;;;5.65;;
26191;SDS011;13935;55.672;37.764;2022-09-28T00:40:21;8.00;;;5.65;;
26191;SDS011;13935;55.672;37.764;2022-09-28T00:41:24;9.10;;;5.88;;
26191;SDS011;13935;55.672;37.764;2022-09-28T00:42:28;8.55;;;5.93;;
26191;SDS011;13935;55.672;37.764;2022-09-28T00:43:30;8.82;;;6.50;;
26191;SDS011;13935;55.672;37.764;2022-09-28T00:45:58;9.20;;;5.70;;
26191;SDS011;13935;55.672;37.764;2022-09-28T00:48:33;8.38;;;5.47;;
26191;SDS011;13935;55.672;37.764;2022-09-28T00:49:47;8.35;;;5.28;;
26191;SDS011;13935;55.672;37.764;2022-09-28T00:50:58;8.10;;;5.40;;
26191;SDS011;13935;55.672;37.764;2022-09-28T00:52:05;7.88;;;5.22;;
26191;SDS011;13935;55.672;37.764;2022-09-28T00:53:17;7.72;;;5.05;;
26191;SDS011;13935;55.672;37.764;2022-09-28T00:54:26;8.18;;;5.00;;
26191;SDS011;13935;55.672;37.764;2022-09-28T00:55:30;7.90;;;5.35;;
26191;SDS011;13935;55.672;37.764;2022-09-28T00:56:55;8.40;;;5.00;;
26191;SDS011;13935;55.672;37.764;2022-09-28T00:57:58;8.80;;;5.22;;
26191;SDS011;13935;55.672;37.764;2022-09-28T00:59:07;8.45;;;5.43;;
26191;SDS011;13935;55.672;37.764;2022-09-28T01:00:11;8.43;;;5.32;;
26191;SDS011;13935;55.672;37.764;2022-09-28T01:01:15;7.82;;;4.80;;
26191;SDS011;13935;55.672;37.764;2022-09-28T01:02:18;8.77;;;4.90;;
26191;SDS011;13935;55.672;37.764;2022-09-28T01:03:23;6.90;;;4.78;;
26191;SDS011;13935;55.672;37.764;2022-09-28T01:04:28;7.30;;;4.68;;
26191;SDS011;13935;55.672;37.764;2022-09-28T01:05:33;11.13;;;5.10;;
26191;SDS011;13935;55.672;37.764;2022-09-28T01:06:37;6.78;;;4.97;;
26191;SDS011;13935;55.672;37.764;2022-09-28T01:07:39;7.05;;;4.93;;
26191;SDS011;13935;55.672;37.764;2022-09-28T01:08:41;9.32;;;5.15;;
26191;SDS011;13935;55.672;37.764;2022-09-28T01:09:49;7.20;;;4.80;;
26191;SDS011;13935;55.672;37.764;2022-09-28T01:10:52;7.30;;;4.22;;
26191;SDS011;13935;55.672;37.764;2022-09-28T01:11:57;8.38;;;4.43;;
26191;SDS011;13935;55.672;37.764;2022-09-28T01:13:00;10.50;;;4.85;;
26191;SDS011;13935;55.672;37.764;2022-09-28T01:14:04;8.32;;;4.88;;
26191;SDS011;13935;55.672;37.764;2022-09-28T01:15:09;6.78;;;4.40;;
26191;SDS011;13935;55.672;37.764;2022-09-28T01:17:59;6.72;;;4.25;;
26191;SDS011;13935;55.672;37.764;2022-09-28T01:19:30;7.03;;;4.43;;
26191;SDS011;13935;55.672;37.764;2022-09-28T01:28:35;7.43;;;4.10;;
26191;SDS011;13935;55.672;37.764;2022-09-28T01:32:23;6.18;;;3.70;;
26191;SDS011;13935;55.672;37.764;2022-09-28T01:33:45;6.32;;;3.83;;
26191;SDS011;13935;55.672;37.764;2022-09-28T01:34:54;6.38;;;3.97;;
26191;SDS011;13935;55.672;37.764;2022-09-28T01:37:32;6.20;;;3.70;;
26191;SDS011;13935;55.672;37.764;2022-09-28T01:38:45;7.05;;;3.45;;
26191;SDS011;13935;55.672;37.764;2022-09-28T01:39:57;5.90;;;3.60;;
26191;SDS011;13935;55.672;37.764;2022-09-28T01:41:04;6.30;;;4.10;;
26191;SDS011;13935;55.672;37.764;2022-09-28T01:42:11;5.68;;;4.00;;
26191;SDS011;13935;55.672;37.764;2022-09-28T01:43:28;5.68;;;3.40;;
26191;SDS011;13935;55.672;37.764;2022-09-28T01:44:37;5.72;;;3.35;;
26191;SDS011;13935;55.672;37.764;2022-09-28T01:45:45;6.40;;;3.67;;
26191;SDS011;13935;55.672;37.764;2022-09-28T01:46:55;5.60;;;3.72;;
26191;SDS011;13935;55.672;37.764;2022-09-28T01:48:04;6.18;;;3.50;;
26191;SDS011;13935;55.672;37.764;2022-09-28T01:49:11;5.97;;;3.70;;
26191;SDS011;13935;55.672;37.764;2022-09-28T01:50:22;6.65;;;3.78;;
26191;SDS011;13935;55.672;37.764;2022-09-28T01:51:35;4.75;;;3.33;;
26191;SDS011;13935;55.672;37.764;2022-09-28T01:52:53;5.82;;;3.78;;
26191;SDS011;13935;55.672;37.764;2022-09-28T01:54:21;5.32;;;3.10;;
26191;SDS011;13935;55.672;37.764;2022-09-28T01:55:30;5.80;;;3.65;;
26191;SDS011;13935;55.672;37.764;2022-09-28T01:58:10;6.93;;;3.65;;
26191;SDS011;13935;55.672;37.764;2022-09-28T01:59:31;6.18;;;3.30;;
26191;SDS011;13935;55.672;37.764;2022-09-28T02:00:35;7.30;;;3.60;;
26191;SDS011;13935;55.672;37.764;2022-09-28T02:01:51;5.35;;;3.42;;
26191;SDS011;13935;55.672;37.764;2022-09-28T02:03:04;7.60;;;3.50;;
26191;SDS011;13935;55.672;37.764;2022-09-28T02:04:31;6.55;;;3.42;;
26191;SDS011;13935;55.672;37.764;2022-09-28T02:05:39;5.38;;;3.42;;
26191;SDS011;13935;55.672;37.764;2022-09-28T02:06:57;5.32;;;3.22;;
26191;SDS011;13935;55.672;37.764;2022-09-28T02:08:07;5.43;;;3.55;;
26191;SDS011;13935;55.672;37.764;2022-09-28T02:09:16;4.93;;;3.15;;
26191;SDS011;13935;55.672;37.764;2022-09-28T02:10:27;4.80;;;3.25;;
26191;SDS011;13935;55.672;37.764;2022-09-28T02:11:36;4.45;;;2.97;;
26191;SDS011;13935;55.672;37.764;2022-09-28T02:14:33;5.75;;;3.10;;
26191;SDS011;13935;55.672;37.764;2022-09-28T02:17:07;5.25;;;3.45;;
26191;SDS011;13935;55.672;37.764;2022-09-28T02:18:10;4.68;;;2.75;;
26191;SDS011;13935;55.672;37.764;2022-09-28T02:19:15;6.90;;;3.00;;
26191;SDS011;13935;55.672;37.764;2022-09-28T02:20:20;5.63;;;3.40;;
26191;SDS011;13935;55.672;37.764;2022-09-28T02:21:27;5.88;;;2.85;;
26191;SDS011;13935;55.672;37.764;2022-09-28T02:22:36;5.85;;;3.38;;
26191;SDS011;13935;55.672;37.764;2022-09-28T02:24:03;4.50;;;2.95;;
26191;SDS011;13935;55.672;37.764;2022-09-28T02:25:33;5.50;;;2.70;;
26191;SDS011;13935;55.672;37.764;2022-09-28T02:26:42;6.68;;;2.95;;
26191;SDS011;13935;55.672;37.764;2022-09-28T02:27:57;5.05;;;3.10;;
26191;SDS011;13935;55.672;37.764;2022-09-28T02:29:24;6.18;;;2.80;;
26191;SDS011;13935;55.672;37.764;2022-09-28T02:30:28;4.25;;;2.65;;
26191;SDS011;13935;55.672;37.764;2022-09-28T02:31:31;4.45;;;2.65;;
26191;SDS011;13935;55.672;37.764;2022-09-28T02:32:34;4.53;;;2.83;;
26191;SDS011;13935;55.672;37.764;2022-09-28T02:33:42;4.88;;;2.92;;
26191;SDS011;13935;55.672;37.764;2022-09-28T02:34:45;4.35;;;2.75;;
26191;SDS011;13935;55.672;37.764;2022-09-28T02:35:47;7.22;;;3.00;;
26191;SDS011;13935;55.672;37.764;2022-09-28T02:36:51;6.30;;;3.08;;
26191;SDS011;13935;55.672;37.764;2022-09-28T02:37:56;5.15;;;2.97;;
26191;SDS011;13935;55.672;37.764;2022-09-28T02:38:58;5.35;;;3.00;;
26191;SDS011;13935;55.672;37.764;2022-09-28T02:40:23;5.03;;;3.13;;
26191;SDS011;13935;55.672;37.764;2022-09-28T02:50:14;4.40;;;2.60;;
26191;SDS011;13935;55.672;37.764;2022-09-28T03:00:18;5.28;;;3.05;;
26191;SDS011;13935;55.672;37.764;2022-09-28T03:04:29;4.90;;;3.05;;
26191;SDS011;13935;55.672;37.764;2022-09-28T03:07:19;6.32;;;3.10;;
26191;SDS011;13935;55.672;37.764;2022-09-28T03:10:11;4.85;;;3.03;;
26191;SDS011;13935;55.672;37.764;2022-09-28T03:11:23;4.53;;;2.78;;
26191;SDS011;13935;55.672;37.764;2022-09-28T03:12:32;4.60;;;2.70;;
26191;SDS011;13935;55.672;37.764;2022-09-28T03:13:39;5.90;;;3.20;;
26191;SDS011;13935;55.672;37.764;2022-09-28T03:14:44;4.90;;;3.00;;
26191;SDS011;13935;55.672;37.764;2022-09-28T03:15:48;5.50;;;3.05;;
26191;SDS011;13935;55.672;37.764;2022-09-28T03:16:51;5.03;;;2.88;;
26191;SDS011;13935;55.672;37.764;2022-09-28T03:17:54;4.97;;;3.10;;
26191;SDS011;13935;55.672;37.764;2022-09-28T03:18:59;4.22;;;2.67;;
26191;SDS011;13935;55.672;37.764;2022-09-28T03:20:02;4.65;;;2.90;;
26191;SDS011;13935;55.672;37.764;2022-09-28T03:21:08;5.25;;;2.95;;
26191;SDS011;13935;55.672;37.764;2022-09-28T03:22:17;5.22;;;2.90;;
26191;SDS011;13935;55.672;37.764;2022-09-28T03:23:20;5.18;;;3.47;;
26191;SDS011;13935;55.672;37.764;2022-09-28T03:24:27;4.80;;;3.30;;
26191;SDS011;13935;55.672;37.764;2022-09-28T03:25:30;5.05;;;3.50;;
26191;SDS011;13935;55.672;37.764;2022-09-28T03:26:32;5.90;;;3.55;;
26191;SDS011;13935;55.672;37.764;2022-09-28T03:27:35;4.97;;;3.30;;
26191;SDS011;13935;55.672;37.764;2022-09-28T03:28:38;4.60;;;2.95;;
26191;SDS011;13935;55.672;37.764;2022-09-28T03:29:45;4.82;;;3.00;;
26191;SDS011;13935;55.672;37.764;2022-09-28T03:30:47;6.28;;;3.35;;
26191;SDS011;13935;55.672;37.764;2022-09-28T03:31:50;6.18;;;3.38;;
26191;SDS011;13935;55.672;37.764;2022-09-28T03:32:55;6.72;;;3.55;;
26191;SDS011;13935;55.672;37.764;2022-09-28T03:34:03;5.45;;;3.58;;
26191;SDS011;13935;55.672;37.764;2022-09-28T03:35:06;5.28;;;3.53;;
26191;SDS011;13935;55.672;37.764;2022-09-28T03:36:09;6.10;;;3.15;;
26191;SDS011;13935;55.672;37.764;2022-09-28T03:37:13;4.72;;;3.22;;
26191;SDS011;13935;55.672;37.764;2022-09-28T03:38:16;5.88;;;3.75;;
26191;SDS011;13935;55.672;37.764;2022-09-28T03:39:19;4.93;;;3.42;;
26191;SDS011;13935;55.672;37.764;2022-09-28T03:40:22;5.55;;;3.50;;
26191;SDS011;13935;55.672;37.764;2022-09-28T03:41:26;4.88;;;3.47;;
26191;SDS011;13935;55.672;37.764;2022-09-28T03:42:34;5.95;;;3.63;;
26191;SDS011;13935;55.672;37.764;2022-09-28T03:43:38;4.70;;;3.22;;
26191;SDS011;13935;55.672;37.764;2022-09-28T03:44:41;5.32;;;3.60;;
26191;SDS011;13935;55.672;37.764;2022-09-28T03:45:52;5.82;;;4.10;;
26191;SDS011;13935;55.672;37.764;2022-09-28T03:46:56;5.70;;;3.90;;
26191;SDS011;13935;55.672;37.764;2022-09-28T03:47:58;5.53;;;4.00;;
26191;SDS011;13935;55.672;37.764;2022-09-28T03:49:01;6.80;;;4.20;;
26191;SDS011;13935;55.672;37.764;2022-09-28T03:50:05;5.05;;;3.65;;
26191;SDS011;13935;55.672;37.764;2022-09-28T03:51:08;4.75;;;3.60;;
26191;SDS011;13935;55.672;37.764;2022-09-28T03:52:12;6.55;;;4.00;;
26191;SDS011;13935;55.672;37.764;2022-09-28T03:53:15;5.38;;;3.97;;
26191;SDS011;13935;55.672;37.764;2022-09-28T03:54:17;5.70;;;3.90;;
26191;SDS011;13935;55.672;37.764;2022-09-28T03:55:22;6.05;;;3.78;;
26191;SDS011;13935;55.672;37.764;2022-09-28T03:56:25;6.63;;;4.05;;
26191;SDS011;13935;55.672;37.764;2022-09-28T03:57:27;7.60;;;4.07;;
26191;SDS011;13935;55.672;37.764;2022-09-28T03:58:30;6.13;;;3.97;;
26191;SDS011;13935;55.672;37.764;2022-09-28T03:59:32;6.45;;;4.15;;
26191;SDS011;13935;55.672;37.764;2022-09-28T04:00:38;5.63;;;4.30;;
26191;SDS011;13935;55.672;37.764;2022-09-28T04:01:41;5.25;;;3.83;;
26191;SDS011;13935;55.672;37.764;2022-09-28T04:02:46;6.18;;;4.30;;
26191;SDS011;13935;55.672;37.764;2022-09-28T04:03:51;6.60;;;4.03;;
26191;SDS011;13935;55.672;37.764;2022-09-28T04:04:59;6.45;;;4.25;;
26191;SDS011;13935;55.672;37.764;2022-09-28T04:06:01;6.25;;;3.88;;
26191;SDS011;13935;55.672;37.764;2022-09-28T04:07:03;6.15;;;4.38;;
26191;SDS011;13935;55.672;37.764;2022-09-28T04:08:05;6.32;;;4.20;;
26191;SDS011;13935;55.672;37.764;2022-09-28T04:09:08;11.32;;;4.72;;
26191;SDS011;13935;55.672;37.764;2022-09-28T04:10:10;6.88;;;4.03;;
26191;SDS011;13935;55.672;37.764;2022-09-28T04:11:13;8.60;;;5.22;;
26191;SDS011;13935;55.672;37.764;2022-09-28T04:12:15;6.00;;;4.07;;
26191;SDS011;13935;55.672;37.764;2022-09-28T04:13:18;6.90;;;4.28;;
26191;SDS011;13935;55.672;37.764;2022-09-28T04:14:21;5.70;;;4.25;;
26191;SDS011;13935;55.672;37.764;2022-09-28T04:15:23;5.70;;;4.10;;
26191;SDS011;13935;55.672;37.764;2022-09-28T04:16:26;5.90;;;4.25;;
26191;SDS011;13935;55.672;37.764;2022-09-28T04:17:42;6.38;;;3.90;;
26191;SDS011;13935;55.672;37.764;2022-09-28T04:18:59;7.03;;;4.53;;
26191;SDS011;13935;55.672;37.764;2022-09-28T04:20:21;6.85;;;4.53;;
26191;SDS011;13935;55.672;37.764;2022-09-28T04:21:35;6.50;;;4.30;;
26191;SDS011;13935;55.672;37.764;2022-09-28T04:22:46;6.00;;;4.35;;
26191;SDS011;13935;55.672;37.764;2022-09-28T04:23:49;6.60;;;4.88;;
26191;SDS011;13935;55.672;37.764;2022-09-28T04:24:54;5.80;;;4.40;;
26191;SDS011;13935;55.672;37.764;2022-09-28T04:25:56;5.50;;;4.07;;
26191;SDS011;13935;55.672;37.764;2022-09-28T04:26:59;6.57;;;4.38;;
26191;SDS011;13935;55.672;37.764;2022-09-28T04:28:20;7.47;;;4.72;;
26191;SDS011;13935;55.672;37.764;2022-09-28T04:29:41;5.95;;;4.43;;
26191;SDS011;13935;55.672;37.764;2022-09-28T04:30:45;6.70;;;4.60;;
26191;SDS011;13935;55.672;37.764;2022-09-28T04:31:48;7.38;;;4.93;;
26191;SDS011;13935;55.672;37.764;2022-09-28T04:34:02;6.50;;;4.50;;
26191;SDS011;13935;55.672;37.764;2022-09-28T04:35:05;8.23;;;4.90;;
26191;SDS011;13935;55.672;37.764;2022-09-28T04:36:07;7.22;;;4.45;;
26191;SDS011;13935;55.672;37.764;2022-09-28T04:37:11;6.00;;;4.13;;
26191;SDS011;13935;55.672;37.764;2022-09-28T04:38:13;6.72;;;4.25;;
26191;SDS011;13935;55.672;37.764;2022-09-28T04:39:31;6.70;;;4.53;;
26191;SDS011;13935;55.672;37.764;2022-09-28T04:40:33;5.68;;;4.22;;
26191;SDS011;13935;55.672;37.764;2022-09-28T04:41:36;5.97;;;4.00;;
26191;SDS011;13935;55.672;37.764;2022-09-28T04:42:39;5.45;;;4.00;;
26191;SDS011;13935;55.672;37.764;2022-09-28T04:43:41;6.68;;;4.13;;
26191;SDS011;13935;55.672;37.764;2022-09-28T04:44:44;6.30;;;4.38;;
26191;SDS011;13935;55.672;37.764;2022-09-28T04:45:46;5.82;;;4.50;;
26191;SDS011;13935;55.672;37.764;2022-09-28T04:46:49;7.03;;;4.50;;
26191;SDS011;13935;55.672;37.764;2022-09-28T04:48:05;6.82;;;4.75;;
26191;SDS011;13935;55.672;37.764;2022-09-28T04:49:24;5.75;;;4.60;;
26191;SDS011;13935;55.672;37.764;2022-09-28T04:50:27;6.30;;;4.45;;
26191;SDS011;13935;55.672;37.764;2022-09-28T04:51:54;5.85;;;4.45;;
26191;SDS011;13935;55.672;37.764;2022-09-28T04:53:02;6.18;;;4.57;;
26191;SDS011;13935;55.672;37.764;2022-09-28T04:54:04;7.18;;;4.63;;
26191;SDS011;13935;55.672;37.764;2022-09-28T04:55:11;6.43;;;4.63;;
26191;SDS011;13935;55.672;37.764;2022-09-28T04:56:16;5.80;;;4.38;;
26191;SDS011;13935;55.672;37.764;2022-09-28T04:57:19;6.85;;;4.43;;
26191;SDS011;13935;55.672;37.764;2022-09-28T04:58:24;7.50;;;4.60;;
26191;SDS011;13935;55.672;37.764;2022-09-28T04:59:26;6.18;;;4.70;;
26191;SDS011;13935;55.672;37.764;2022-09-28T05:00:29;5.95;;;4.25;;
26191;SDS011;13935;55.672;37.764;2022-09-28T05:01:47;5.68;;;4.18;;
26191;SDS011;13935;55.672;37.764;2022-09-28T05:03:10;5.80;;;4.30;;
26191;SDS011;13935;55.672;37.764;2022-09-28T05:04:31;5.97;;;4.05;;
26191;SDS011;13935;55.672;37.764;2022-09-28T05:05:46;6.53;;;4.25;;
26191;SDS011;13935;55.672;37.764;2022-09-28T05:07:15;5.60;;;4.30;;
26191;SDS011;13935;55.672;37.764;2022-09-28T05:08:17;6.15;;;4.13;;
26191;SDS011;13935;55.672;37.764;2022-09-28T05:09:19;5.78;;;4.28;;
26191;SDS011;13935;55.672;37.764;2022-09-28T05:10:22;6.60;;;4.00;;
26191;SDS011;13935;55.672;37.764;2022-09-28T05:11:26;5.65;;;4.30;;
26191;SDS011;13935;55.672;37.764;2022-09-28T05:12:28;6.22;;;4.60;;
26191;SDS011;13935;55.672;37.764;2022-09-28T05:13:33;7.05;;;4.45;;
26191;SDS011;13935;55.672;37.764;2022-09-28T05:14:52;8.20;;;4.80;;
26191;SDS011;13935;55.672;37.764;2022-09-28T05:15:57;7.43;;;4.57;;
26191;SDS011;13935;55.672;37.764;2022-09-28T05:17:09;6.40;;;4.43;;
26191;SDS011;13935;55.672;37.764;2022-09-28T05:18:29;7.13;;;4.32;;
26191;SDS011;13935;55.672;37.764;2022-09-28T05:19:36;7.10;;;4.32;;
26191;SDS011;13935;55.672;37.764;2022-09-28T05:20:39;7.38;;;5.07;;
26191;SDS011;13935;55.672;37.764;2022-09-28T05:21:43;6.55;;;4.53;;
26191;SDS011;13935;55.672;37.764;2022-09-28T05:22:46;7.97;;;4.32;;
26191;SDS011;13935;55.672;37.764;2022-09-28T05:23:48;7.47;;;4.20;;
26191;SDS011;13935;55.672;37.764;2022-09-28T05:24:53;9.85;;;5.20;;
26191;SDS011;13935;55.672;37.764;2022-09-28T05:25:59;7.15;;;4.53;;
26191;SDS011;13935;55.672;37.764;2022-09-28T05:27:09;8.20;;;4.50;;
26191;SDS011;13935;55.672;37.764;2022-09-28T05:28:15;6.70;;;4.28;;
26191;SDS011;13935;55.672;37.764;2022-09-28T05:29:46;8.30;;;4.40;;
26191;SDS011;13935;55.672;37.764;2022-09-28T05:31:00;5.97;;;4.60;;
26191;SDS011;13935;55.672;37.764;2022-09-28T05:32:27;6.40;;;4.28;;
26191;SDS011;13935;55.672;37.764;2022-09-28T05:33:53;6.32;;;4.00;;
26191;SDS011;13935;55.672;37.764;2022-09-28T05:34:57;6.10;;;4.53;;
26191;SDS011;13935;55.672;37.764;2022-09-28T05:36:11;6.53;;;4.35;;
26191;SDS011;13935;55.672;37.764;2022-09-28T05:37:17;5.35;;;4.13;;
26191;SDS011;13935;55.672;37.764;2022-09-28T05:38:20;5.72;;;4.05;;
26191;SDS011;13935;55.672;37.764;2022-09-28T05:39:23;9.52;;;5.03;;
26191;SDS011;13935;55.672;37.764;2022-09-28T05:40:25;8.07;;;4.32;;
26191;SDS011;13935;55.672;37.764;2022-09-28T05:41:27;6.10;;;4.22;;
26191;SDS011;13935;55.672;37.764;2022-09-28T05:42:32;6.18;;;4.50;;
26191;SDS011;13935;55.672;37.764;2022-09-28T05:43:34;6.80;;;4.38;;
26191;SDS011;13935;55.672;37.764;2022-09-28T05:44:38;6.80;;;4.47;;
26191;SDS011;13935;55.672;37.764;2022-09-28T05:45:41;7.22;;;4.60;;
26191;SDS011;13935;55.672;37.764;2022-09-28T05:46:44;7.10;;;4.50;;
26191;SDS011;13935;55.672;37.764;2022-09-28T05:47:46;7.43;;;4.75;;
26191;SDS011;13935;55.672;37.764;2022-09-28T05:48:52;8.32;;;4.75;;
26191;SDS011;13935;55.672;37.764;2022-09-28T05:49:56;7.45;;;4.70;;
26191;SDS011;13935;55.672;37.764;2022-09-28T05:50:58;7.10;;;4.55;;
26191;SDS011;13935;55.672;37.764;2022-09-28T05:52:00;7.45;;;5.05;;
26191;SDS011;13935;55.672;37.764;2022-09-28T05:53:09;7.07;;;4.82;;
26191;SDS011;13935;55.672;37.764;2022-09-28T05:54:19;8.52;;;5.30;;
26191;SDS011;13935;55.672;37.764;2022-09-28T05:55:24;6.13;;;4.53;;
26191;SDS011;13935;55.672;37.764;2022-09-28T05:56:28;7.10;;;5.03;;
26191;SDS011;13935;55.672;37.764;2022-09-28T05:57:31;7.75;;;4.95;;
26191;SDS011;13935;55.672;37.764;2022-09-28T05:58:34;7.00;;;5.10;;
26191;SDS011;13935;55.672;37.764;2022-09-28T05:59:36;6.35;;;4.85;;
26191;SDS011;13935;55.672;37.764;2022-09-28T06:00:39;7.22;;;5.13;;
26191;SDS011;13935;55.672;37.764;2022-09-28T06:01:41;8.05;;;5.35;;
26191;SDS011;13935;55.672;37.764;2022-09-28T06:02:53;8.07;;;5.47;;
26191;SDS011;13935;55.672;37.764;2022-09-28T06:03:57;6.72;;;5.22;;
26191;SDS011;13935;55.672;37.764;2022-09-28T06:04:59;7.38;;;4.88;;
26191;SDS011;13935;55.672;37.764;2022-09-28T06:06:03;7.28;;;5.03;;
26191;SDS011;13935;55.672;37.764;2022-09-28T06:07:06;7.60;;;5.38;;
26191;SDS011;13935;55.672;37.764;2022-09-28T06:08:08;6.35;;;5.13;;
26191;SDS011;13935;55.672;37.764;2022-09-28T06:09:18;7.00;;;4.82;;
26191;SDS011;13935;55.672;37.764;2022-09-28T06:10:30;10.50;;;5.53;;
26191;SDS011;13935;55.672;37.764;2022-09-28T06:11:34;6.25;;;4.90;;
26191;SDS011;13935;55.672;37.764;2022-09-28T06:12:45;7.25;;;4.82;;
26191;SDS011;13935;55.672;37.764;2022-09-28T06:13:53;7.50;;;5.40;;
26191;SDS011;13935;55.672;37.764;2022-09-28T06:15:00;6.47;;;4.80;;
26191;SDS011;13935;55.672;37.764;2022-09-28T06:16:03;7.18;;;4.53;;
26191;SDS011;13935;55.672;37.764;2022-09-28T06:17:05;6.72;;;4.70;;
26191;SDS011;13935;55.672;37.764;2022-09-28T06:18:09;7.97;;;5.10;;
26191;SDS011;13935;55.672;37.764;2022-09-28T06:19:33;8.07;;;4.80;;
26191;SDS011;13935;55.672;37.764;2022-09-28T06:20:41;7.15;;;4.85;;
26191;SDS011;13935;55.672;37.764;2022-09-28T06:21:49;6.83;;;5.00;;
26191;SDS011;13935;55.672;37.764;2022-09-28T06:22:52;7.03;;;5.15;;
26191;SDS011;13935;55.672;37.764;2022-09-28T06:23:54;7.25;;;4.97;;
26191;SDS011;13935;55.672;37.764;2022-09-28T06:24:57;6.70;;;4.85;;
26191;SDS011;13935;55.672;37.764;2022-09-28T06:25:59;8.02;;;5.22;;
26191;SDS011;13935;55.672;37.764;2022-09-28T06:27:02;6.60;;;5.03;;
26191;SDS011;13935;55.672;37.764;2022-09-28T06:28:11;7.10;;;5.28;;
26191;SDS011;13935;55.672;37.764;2022-09-28T06:29:15;7.88;;;5.55;;
26191;SDS011;13935;55.672;37.764;2022-09-28T06:30:21;8.45;;;5.10;;
26191;SDS011;13935;55.672;37.764;2022-09-28T06:31:25;7.47;;;5.28;;
26191;SDS011;13935;55.672;37.764;2022-09-28T06:32:29;7.13;;;5.05;;
26191;SDS011;13935;55.672;37.764;2022-09-28T06:33:31;7.65;;;5.20;;
26191;SDS011;13935;55.672;37.764;2022-09-28T06:34:33;9.38;;;5.45;;
26191;SDS011;13935;55.672;37.764;2022-09-28T06:35:36;7.55;;;5.05;;
26191;SDS011;13935;55.672;37.764;2022-09-28T06:36:38;7.50;;;5.25;;
26191;SDS011;13935;55.672;37.764;2022-09-28T06:37:43;7.97;;;5.38;;
26191;SDS011;13935;55.672;37.764;2022-09-28T06:38:46;8.05;;;5.40;;
26191;SDS011;13935;55.672;37.764;2022-09-28T06:39:51;6.35;;;4.90;;
26191;SDS011;13935;55.672;37.764;2022-09-28T06:40:55;7.28;;;4.75;;
26191;SDS011;13935;55.672;37.764;2022-09-28T06:41:58;7.68;;;5.28;;
26191;SDS011;13935;55.672;37.764;2022-09-28T06:43:23;7.53;;;5.10;;
26191;SDS011;13935;55.672;37.764;2022-09-28T06:44:58;8.02;;;5.20;;
26191;SDS011;13935;55.672;37.764;2022-09-28T06:46:24;7.97;;;5.15;;
26191;SDS011;13935;55.672;37.764;2022-09-28T06:47:44;7.88;;;4.80;;
26191;SDS011;13935;55.672;37.764;2022-09-28T06:49:04;7.38;;;4.80;;
26191;SDS011;13935;55.672;37.764;2022-09-28T06:50:29;8.93;;;4.80;;
26191;SDS011;13935;55.672;37.764;2022-09-28T06:51:59;7.68;;;4.90;;
26191;SDS011;13935;55.672;37.764;2022-09-28T06:53:27;8.32;;;4.85;;
26191;SDS011;13935;55.672;37.764;2022-09-28T06:54:32;9.38;;;5.07;;
26191;SDS011;13935;55.672;37.764;2022-09-28T06:55:41;7.45;;;5.18;;
26191;SDS011;13935;55.672;37.764;2022-09-28T06:56:46;8.10;;;4.93;;
26191;SDS011;13935;55.672;37.764;2022-09-28T06:58:01;11.00;;;5.22;;
26191;SDS011;13935;55.672;37.764;2022-09-28T06:59:05;8.02;;;5.20;;
26191;SDS011;13935;55.672;37.764;2022-09-28T07:00:09;7.88;;;5.10;;
26191;SDS011;13935;55.672;37.764;2022-09-28T07:01:12;7.15;;;4.63;;
26191;SDS011;13935;55.672;37.764;2022-09-28T07:02:29;7.13;;;4.85;;
26191;SDS011;13935;55.672;37.764;2022-09-28T07:03:43;7.40;;;4.50;;
26191;SDS011;13935;55.672;37.764;2022-09-28T07:05:14;7.32;;;4.30;;
26191;SDS011;13935;55.672;37.764;2022-09-28T07:06:53;6.28;;;4.45;;
26191;SDS011;13935;55.672;37.764;2022-09-28T07:08:19;6.90;;;4.50;;
26191;SDS011;13935;55.672;37.764;2022-09-28T07:09:41;6.35;;;4.25;;
26191;SDS011;13935;55.672;37.764;2022-09-28T07:11:14;7.72;;;5.05;;
26191;SDS011;13935;55.672;37.764;2022-09-28T07:12:34;7.22;;;4.53;;
26191;SDS011;13935;55.672;37.764;2022-09-28T07:13:52;7.78;;;4.55;;
26191;SDS011;13935;55.672;37.764;2022-09-28T07:14:56;6.40;;;4.18;;
26191;SDS011;13935;55.672;37.764;2022-09-28T07:16:01;7.95;;;4.72;;
26191;SDS011;13935;55.672;37.764;2022-09-28T07:17:03;6.47;;;4.18;;
26191;SDS011;13935;55.672;37.764;2022-09-28T07:18:16;8.80;;;4.65;;
26191;SDS011;13935;55.672;37.764;2022-09-28T07:19:22;10.02;;;4.45;;
26191;SDS011;13935;55.672;37.764;2022-09-28T07:20:24;8.68;;;5.22;;
26191;SDS011;13935;55.672;37.764;2022-09-28T07:21:27;7.43;;;4.53;;
26191;SDS011;13935;55.672;37.764;2022-09-28T07:22:34;7.35;;;4.65;;
26191;SDS011;13935;55.672;37.764;2022-09-28T07:23:48;8.85;;;4.80;;
26191;SDS011;13935;55.672;37.764;2022-09-28T07:24:57;9.20;;;5.47;;
26191;SDS011;13935;55.672;37.764;2022-09-28T07:26:20;7.47;;;4.90;;
26191;SDS011;13935;55.672;37.764;2022-09-28T07:27:39;7.22;;;4.72;;
26191;SDS011;13935;55.672;37.764;2022-09-28T07:29:11;5.97;;;3.80;;